Time;durP1;ratioP1;P1;durP2;ratioP2;P2;SDS_P1;SDS_P2;PMS_P1;PMS_P2;Temp;Humidity;BMP_temperature;BMP_pressure;BME280_temperature;BME280_humidity;BME280_pressure;Samples;Min_cycle;Max_cycle;Signal;HPM_P1;HPM_P2
2023/10/15 00:00:14;;;;;;;;;;;13.00;76.90;;;;;;5064462;28;20051;-77
2023/10/15 00:02:42;;;;;;;;;;;13.00;77.00;;;;;;5065649;28;20494;-77
2023/10/15 00:05:10;;;;;;;;;;;13.10;77.00;;;;;;5065689;28;20005;-76
2023/10/15 00:07:36;;;;;;;;;;;13.00;77.00;;;;;;5067566;28;19957;-77
2023/10/15 00:10:07;;;;;;;;;;;13.00;77.00;;;;;;5065531;28;19976;-76
2023/10/15 00:12:33;;;;;;;;;;;13.00;77.00;;;;;;5065968;28;19961;-77
2023/10/15 00:15:00;;;;;;;;;;;12.90;77.00;;;;;;5065154;28;19973;-76
2023/10/15 00:17:27;;;;;;;;;;;13.00;77.10;;;;;;5067979;28;19972;-76
2023/10/15 00:19:55;;;;;;;;;;;13.00;77.20;;;;;;5064391;28;19968;-76
2023/10/15 00:22:21;;;;;;;;;;;12.90;77.20;;;;;;5067063;28;20485;-77
2023/10/15 00:24:48;;;;;;;;;;;12.90;77.20;;;;;;5061006;28;19973;-77
2023/10/15 00:27:17;;;;;;;;;;;12.90;77.30;;;;;;5063809;28;20014;-77
2023/10/15 00:29:43;;;;;;;;;;;12.90;77.30;;;;;;5066392;28;20455;-77
2023/10/15 00:32:12;;;;;;;;;;;12.80;78.00;;;;;;5064550;28;19976;-76
2023/10/15 00:34:39;;;;;;;;;;;12.90;77.30;;;;;;5063843;28;19982;-77
2023/10/15 00:37:06;;;;;;;;;;;12.80;77.30;;;;;;5065150;28;19952;-76
2023/10/15 00:39:37;;;;;;;;;;;12.90;77.50;;;;;;5067330;28;20401;-76
2023/10/15 00:42:03;;;;;;;;;;;12.90;77.60;;;;;;5066701;28;20013;-76
2023/10/15 00:44:31;;;;;;;;;;;12.80;77.50;;;;;;5064308;28;20001;-77
2023/10/15 00:47:01;;;;;;;;;;;12.80;77.50;;;;;;5063211;28;19983;-76
2023/10/15 00:49:28;;;;;;;;;;;12.80;77.60;;;;;;5069190;28;19976;-76
2023/10/15 00:51:55;;;;;;;;;;;12.80;77.70;;;;;;5064822;28;19960;-77
2023/10/15 00:54:24;;;;;;;;;;;12.80;77.80;;;;;;5066472;28;20361;-77
2023/10/15 00:56:54;;;;;;;;;;;12.80;77.80;;;;;;5066774;28;20044;-76
2023/10/15 00:59:21;;;;;;;;;;;12.80;77.80;;;;;;5071236;28;19959;-77
2023/10/15 01:02:02;;;;;;;;;;;12.80;77.70;;;;;;5064343;28;20393;-77
2023/10/15 01:04:32;;;;;;;;;;;12.70;77.70;;;;;;5064149;28;19974;-76
2023/10/15 01:07:00;;;;;;;;;;;12.80;77.80;;;;;;5063987;28;20435;-77
2023/10/15 01:09:28;;;;;;;;;;;12.80;77.80;;;;;;5061183;28;19973;-76
2023/10/15 01:11:56;;;;;;;;;;;12.80;77.80;;;;;;5063339;28;19975;-76
2023/10/15 01:14:27;;;;;;;;;;;12.70;77.80;;;;;;5061898;28;19979;-77
2023/10/15 01:16:56;;;;;;;;;;;12.80;77.80;;;;;;5062963;28;19982;-77
2023/10/15 01:19:31;;;;;;;;;;;12.80;77.90;;;;;;5060243;28;20020;-77
2023/10/15 01:21:58;;;;;;;;;;;12.80;77.80;;;;;;5063981;28;20001;-76
2023/10/15 01:24:26;;;;;;;;;;;12.70;77.90;;;;;;5061252;28;19971;-77
2023/10/15 01:27:08;;;;;;;;;;;12.70;77.80;;;;;;5067572;28;20005;-77
2023/10/15 01:29:35;;;;;;;;;;;12.70;77.70;;;;;;5063313;28;20062;-77
2023/10/15 01:32:03;;;;;;;;;;;12.70;77.80;;;;;;5062662;28;19979;-76
2023/10/15 01:34:37;;;;;;;;;;;12.70;77.90;;;;;;5064159;28;20094;-76
2023/10/15 01:37:10;;;;;;;;;;;12.70;77.70;;;;;;5060750;28;19955;-76
2023/10/15 01:39:39;;;;;;;;;;;12.70;77.70;;;;;;5061750;28;20334;-76
2023/10/15 01:42:07;;;;;;;;;;;12.70;78.50;;;;;;5062771;28;20899;-76
2023/10/15 01:44:38;;;;;;;;;;;12.70;77.70;;;;;;5063895;28;19972;-77
2023/10/15 01:47:08;;;;;;;;;;;12.60;77.70;;;;;;5061301;28;19973;-76
2023/10/15 01:49:35;;;;;;;;;;;12.60;77.60;;;;;;5061913;28;19982;-77
2023/10/15 01:52:05;;;;;;;;;;;12.60;77.70;;;;;;5063789;28;20041;-77
2023/10/15 01:54:32;;;;;;;;;;;12.70;77.80;;;;;;5060808;28;19970;-78
2023/10/15 01:56:59;;;;;;;;;;;12.60;77.70;;;;;;5060860;28;19954;-76
2023/10/15 01:59:28;;;;;;;;;;;12.60;77.70;;;;;;5068544;28;19962;-76
2023/10/15 02:01:56;;;;;;;;;;;12.60;77.70;;;;;;5066201;28;19983;-76
2023/10/15 02:04:24;;;;;;;;;;;12.60;77.70;;;;;;5069028;28;20096;-77
2023/10/15 02:06:51;;;;;;;;;;;12.60;77.80;;;;;;5067560;28;20048;-76
2023/10/15 02:09:21;;;;;;;;;;;12.60;77.70;;;;;;5065103;28;21196;-77
2023/10/15 02:11:48;;;;;;;;;;;12.60;77.90;;;;;;5064634;28;19954;-76
2023/10/15 02:14:20;;;;;;;;;;;12.60;77.90;;;;;;5066129;28;19976;-76
2023/10/15 02:16:49;;;;;;;;;;;12.60;77.80;;;;;;5061971;28;20051;-76
2023/10/15 02:19:19;;;;;;;;;;;12.60;78.70;;;;;;5066118;28;20074;-76
2023/10/15 02:21:50;;;;;;;;;;;12.60;77.90;;;;;;5065389;28;19991;-76
2023/10/15 02:24:16;;;;;;;;;;;12.60;77.90;;;;;;5064207;28;19975;-76
2023/10/15 02:26:43;;;;;;;;;;;12.60;78.00;;;;;;5061523;28;20491;-76
2023/10/15 02:29:27;;;;;;;;;;;12.60;77.90;;;;;;5065562;28;19979;-76
2023/10/15 02:31:58;;;;;;;;;;;12.60;78.00;;;;;;5063411;28;20057;-77
2023/10/15 02:34:27;;;;;;;;;;;12.60;78.00;;;;;;5071189;28;19974;-76
2023/10/15 02:36:54;;;;;;;;;;;12.50;78.10;;;;;;5064447;28;19970;-77
2023/10/15 02:39:22;;;;;;;;;;;12.60;78.20;;;;;;5074747;28;19966;-76
2023/10/15 02:41:48;;;;;;;;;;;12.50;78.10;;;;;;5064661;28;19987;-76
2023/10/15 02:44:16;;;;;;;;;;;12.60;78.20;;;;;;5065438;28;20425;-76
2023/10/15 02:46:49;;;;;;;;;;;12.50;78.10;;;;;;5064071;28;20092;-76
2023/10/15 02:49:18;;;;;;;;;;;12.50;78.10;;;;;;5069916;28;19996;-76
2023/10/15 02:51:45;;;;;;;;;;;12.50;78.30;;;;;;5063764;28;20424;-76
2023/10/15 02:54:26;;;;;;;;;;;12.50;78.40;;;;;;5067776;28;20718;-76
2023/10/15 02:56:56;;;;;;;;;;;12.50;78.30;;;;;;5064518;28;19959;-77
2023/10/15 02:59:23;;;;;;;;;;;12.50;78.30;;;;;;5066512;28;19959;-76
2023/10/15 03:01:54;;;;;;;;;;;12.50;78.40;;;;;;5064317;28;19977;-77
2023/10/15 03:04:32;;;;;;;;;;;12.50;78.50;;;;;;5067850;28;20533;-77
2023/10/15 03:07:17;;;;;;;;;;;12.50;78.50;;;;;;5066292;28;19954;-76
2023/10/15 03:09:44;;;;;;;;;;;12.50;78.50;;;;;;5065983;28;20535;-77
2023/10/15 03:12:13;;;;;;;;;;;12.50;78.60;;;;;;5066653;28;20021;-76
2023/10/15 03:14:41;;;;;;;;;;;12.50;78.60;;;;;;5065577;28;20430;-77
2023/10/15 03:17:13;;;;;;;;;;;12.50;78.70;;;;;;5066698;28;19979;-76
2023/10/15 03:19:41;;;;;;;;;;;12.50;78.70;;;;;;5066914;28;19956;-76
2023/10/15 03:22:12;;;;;;;;;;;12.50;78.70;;;;;;5065590;28;20032;-76
2023/10/15 03:24:43;;;;;;;;;;;12.50;78.90;;;;;;5064051;28;19975;-77
2023/10/15 03:27:11;;;;;;;;;;;12.40;78.80;;;;;;5073008;28;20667;-76
2023/10/15 03:29:37;;;;;;;;;;;12.50;78.80;;;;;;5068430;28;19975;-77
2023/10/15 03:32:09;;;;;;;;;;;12.40;78.90;;;;;;5065532;28;20986;-76
2023/10/15 03:34:35;;;;;;;;;;;12.40;79.00;;;;;;5065691;28;19969;-76
2023/10/15 03:37:05;;;;;;;;;;;12.40;78.90;;;;;;5065387;28;20381;-76
2023/10/15 03:39:54;;;;;;;;;;;12.50;78.90;;;;;;5063804;28;19984;-76
2023/10/15 03:42:26;;;;;;;;;;;12.40;79.70;;;;;;5062009;28;20636;-76
2023/10/15 03:44:59;;;;;;;;;;;12.40;79.20;;;;;;5063466;28;19976;-76
2023/10/15 03:47:26;;;;;;;;;;;12.40;79.10;;;;;;5068594;28;19969;-76
2023/10/15 03:49:53;;;;;;;;;;;12.40;79.20;;;;;;5063958;28;20060;-76
2023/10/15 03:52:21;;;;;;;;;;;12.40;79.20;;;;;;5066739;28;20019;-76
2023/10/15 03:54:48;;;;;;;;;;;12.40;79.30;;;;;;5067286;28;20479;-76
2023/10/15 03:57:17;;;;;;;;;;;12.40;79.20;;;;;;5064229;28;20001;-76
2023/10/15 03:59:45;;;;;;;;;;;12.40;79.30;;;;;;5065287;28;19957;-76
2023/10/15 04:02:22;;;;;;;;;;;12.40;79.50;;;;;;5064851;28;20662;-76
2023/10/15 04:04:56;;;;;;;;;;;12.40;79.30;;;;;;5063810;28;19969;-77
2023/10/15 04:07:25;;;;;;;;;;;12.40;79.40;;;;;;5063312;28;19954;-76
2023/10/15 04:09:52;;;;;;;;;;;12.40;79.40;;;;;;5064280;28;19996;-76
2023/10/15 04:12:19;;;;;;;;;;;12.30;79.40;;;;;;5067240;28;19953;-76
2023/10/15 04:14:46;;;;;;;;;;;12.40;79.50;;;;;;5065074;28;20017;-76
2023/10/15 04:17:15;;;;;;;;;;;12.40;79.50;;;;;;5062828;28;20016;-76
2023/10/15 04:19:43;;;;;;;;;;;12.40;79.70;;;;;;5066601;28;19962;-77
2023/10/15 04:22:14;;;;;;;;;;;12.40;79.80;;;;;;5061603;28;20591;-77
2023/10/15 04:24:46;;;;;;;;;;;12.40;79.80;;;;;;5067243;28;20454;-74
2023/10/15 04:27:15;;;;;;;;;;;12.40;79.80;;;;;;5064670;28;19958;-76
2023/10/15 04:29:48;;;;;;;;;;;12.40;79.80;;;;;;5068800;28;20009;-76
2023/10/15 04:32:22;;;;;;;;;;;12.40;80.20;;;;;;5065889;28;19973;-76
2023/10/15 04:34:51;;;;;;;;;;;12.40;80.20;;;;;;5067856;28;19974;-75
2023/10/15 04:37:20;;;;;;;;;;;12.40;80.30;;;;;;5068870;28;19969;-76
2023/10/15 04:39:52;;;;;;;;;;;12.40;80.40;;;;;;5069584;28;20047;-76
2023/10/15 04:42:24;;;;;;;;;;;12.30;80.50;;;;;;5067390;28;20071;-76
2023/10/15 04:44:53;;;;;;;;;;;12.30;80.70;;;;;;5066016;28;20039;-75
2023/10/15 04:47:25;;;;;;;;;;;12.40;80.80;;;;;;5065204;28;19973;-75
2023/10/15 04:49:56;;;;;;;;;;;12.30;80.80;;;;;;5065025;28;19992;-75
2023/10/15 04:52:23;;;;;;;;;;;12.30;81.70;;;;;;5068494;28;19965;-76
2023/10/15 04:54:51;;;;;;;;;;;12.30;81.10;;;;;;5064377;28;19974;-76
2023/10/15 04:57:18;;;;;;;;;;;12.30;81.10;;;;;;5066856;28;19962;-75
2023/10/15 04:59:44;;;;;;;;;;;12.30;81.10;;;;;;5066610;28;19957;-76
2023/10/15 05:02:11;;;;;;;;;;;12.30;81.20;;;;;;5064375;27;20031;-76
2023/10/15 05:04:37;;;;;;;;;;;12.30;81.30;;;;;;5060878;28;20458;-77
2023/10/15 05:07:05;;;;;;;;;;;12.30;81.40;;;;;;5063539;28;20715;-76
2023/10/15 05:09:39;;;;;;;;;;;12.30;81.50;;;;;;5063061;28;19960;-75
2023/10/15 05:12:08;;;;;;;;;;;12.20;81.50;;;;;;5065147;28;20454;-75
2023/10/15 05:14:35;;;;;;;;;;;12.30;81.60;;;;;;5066573;28;19970;-76
2023/10/15 05:17:02;;;;;;;;;;;12.20;81.50;;;;;;5065862;28;19974;-75
2023/10/15 05:19:29;;;;;;;;;;;12.20;81.60;;;;;;5067360;28;19929;-76
2023/10/15 05:21:56;;;;;;;;;;;12.20;81.50;;;;;;5064997;28;19928;-76
2023/10/15 05:24:22;;;;;;;;;;;12.20;81.60;;;;;;5057404;28;19928;-75
2023/10/15 05:26:49;;;;;;;;;;;12.20;81.60;;;;;;5064565;28;19935;-75
2023/10/15 05:29:17;;;;;;;;;;;12.20;81.80;;;;;;5064691;28;19938;-76
2023/10/15 05:31:44;;;;;;;;;;;12.20;81.60;;;;;;5065637;28;19928;-76
2023/10/15 05:34:11;;;;;;;;;;;12.20;81.60;;;;;;5063310;28;19933;-76
2023/10/15 05:36:38;;;;;;;;;;;12.20;81.70;;;;;;5063335;28;20435;-75
2023/10/15 05:39:06;;;;;;;;;;;12.20;81.70;;;;;;5067380;28;19935;-75
2023/10/15 05:41:34;;;;;;;;;;;12.10;81.90;;;;;;5066594;28;19955;-75
2023/10/15 05:44:01;;;;;;;;;;;12.10;81.80;;;;;;5062725;28;19929;-75
2023/10/15 05:46:29;;;;;;;;;;;12.10;81.90;;;;;;5063782;28;20425;-75
2023/10/15 05:48:56;;;;;;;;;;;12.10;81.90;;;;;;5064757;28;20305;-76
2023/10/15 05:51:22;;;;;;;;;;;12.10;81.90;;;;;;5064178;28;20457;-75
2023/10/15 05:53:49;;;;;;;;;;;12.10;82.00;;;;;;5064278;28;19951;-75
2023/10/15 05:56:16;;;;;;;;;;;12.10;82.00;;;;;;5064969;28;19928;-75
2023/10/15 05:58:42;;;;;;;;;;;12.10;82.00;;;;;;5063538;28;19932;-75
2023/10/15 06:01:09;;;;;;;;;;;12.10;82.00;;;;;;5063334;28;20302;-75
2023/10/15 06:03:37;;;;;;;;;;;12.10;82.10;;;;;;5064646;28;20731;-75
2023/10/15 06:06:05;;;;;;;;;;;12.00;82.00;;;;;;5063408;28;19985;-76
2023/10/15 06:08:31;;;;;;;;;;;12.10;82.00;;;;;;5065147;28;19971;-75
2023/10/15 06:10:58;;;;;;;;;;;12.00;81.90;;;;;;5064341;28;20301;-75
2023/10/15 06:13:25;;;;;;;;;;;12.10;82.10;;;;;;5061274;28;20581;-75
2023/10/15 06:15:52;;;;;;;;;;;12.00;82.10;;;;;;5060588;28;19928;-75
2023/10/15 06:18:19;;;;;;;;;;;12.00;82.30;;;;;;5058964;28;19936;-76
2023/10/15 06:20:48;;;;;;;;;;;12.00;82.20;;;;;;5066694;28;19928;-75
2023/10/15 06:23:14;;;;;;;;;;;12.10;82.20;;;;;;5063962;28;19972;-75
2023/10/15 06:25:42;;;;;;;;;;;12.00;82.20;;;;;;5067546;28;19939;-76
2023/10/15 06:28:13;;;;;;;;;;;12.00;82.30;;;;;;5070383;28;19932;-75
2023/10/15 06:30:41;;;;;;;;;;;11.90;82.20;;;;;;5065480;28;20418;-76
2023/10/15 06:33:07;;;;;;;;;;;12.00;82.20;;;;;;5070276;28;19929;-76
2023/10/15 06:35:34;;;;;;;;;;;12.00;82.20;;;;;;5068873;28;19924;-75
2023/10/15 06:38:02;;;;;;;;;;;11.90;82.20;;;;;;5064395;28;19939;-76
2023/10/15 06:40:29;;;;;;;;;;;12.00;82.20;;;;;;5066552;28;19936;-75
2023/10/15 06:43:00;;;;;;;;;;;11.90;82.20;;;;;;5067332;28;19962;-76
2023/10/15 06:45:27;;;;;;;;;;;11.90;82.30;;;;;;5067772;28;19932;-75
2023/10/15 06:47:54;;;;;;;;;;;11.90;82.30;;;;;;5066988;28;19935;-75
2023/10/15 06:50:20;;;;;;;;;;;11.90;82.30;;;;;;5066128;28;19933;-75
2023/10/15 06:52:47;;;;;;;;;;;11.90;82.40;;;;;;5063814;28;19935;-75
2023/10/15 06:55:19;;;;;;;;;;;11.90;82.30;;;;;;5062068;28;20362;-76
2023/10/15 06:57:46;;;;;;;;;;;11.90;82.40;;;;;;5064340;28;19932;-76
2023/10/15 07:00:21;;;;;;;;;;;11.90;82.30;;;;;;5064786;28;19939;-75
2023/10/15 07:02:48;;;;;;;;;;;11.80;82.50;;;;;;5064831;28;19939;-75
2023/10/15 07:05:16;;;;;;;;;;;11.90;82.50;;;;;;5065533;28;19936;-75
2023/10/15 07:07:45;;;;;;;;;;;11.80;82.40;;;;;;5068910;28;19932;-75
2023/10/15 07:10:15;;;;;;;;;;;11.80;82.40;;;;;;5066999;28;19928;-76
2023/10/15 07:12:47;;;;;;;;;;;11.80;82.50;;;;;;5064036;28;20386;-75
2023/10/15 07:15:15;;;;;;;;;;;11.80;82.50;;;;;;5063987;28;19932;-75
2023/10/15 07:17:42;;;;;;;;;;;11.80;82.50;;;;;;5065943;28;19928;-75
2023/10/15 07:20:14;;;;;;;;;;;11.80;82.50;;;;;;5063004;28;20047;-75
2023/10/15 07:22:41;;;;;;;;;;;11.80;82.50;;;;;;5063387;28;19932;-76
2023/10/15 07:25:09;;;;;;;;;;;11.70;82.40;;;;;;5067992;28;19928;-75
2023/10/15 07:27:35;;;;;;;;;;;11.70;82.40;;;;;;5065339;28;19929;-76
2023/10/15 07:30:04;;;;;;;;;;;11.70;82.40;;;;;;5062758;28;19929;-76
2023/10/15 07:32:30;;;;;;;;;;;11.80;82.50;;;;;;5061041;28;19988;-76
2023/10/15 07:34:57;;;;;;;;;;;11.70;82.60;;;;;;5067073;28;19928;-76
2023/10/15 07:37:23;;;;;;;;;;;11.70;82.60;;;;;;5060278;28;19939;-75
2023/10/15 07:39:50;;;;;;;;;;;11.80;82.70;;;;;;5070696;28;19947;-68
2023/10/15 07:42:16;;;;;;;;;;;11.70;82.80;;;;;;5065830;28;20977;-68
2023/10/15 07:44:43;;;;;;;;;;;11.70;82.60;;;;;;5067964;28;19982;-68
2023/10/15 07:47:11;;;;;;;;;;;11.70;82.70;;;;;;5069425;28;19939;-69
2023/10/15 07:49:37;;;;;;;;;;;11.70;82.70;;;;;;5070807;28;19929;-68
2023/10/15 07:52:04;;;;;;;;;;;11.60;82.50;;;;;;5071748;28;20500;-69
2023/10/15 07:54:31;;;;;;;;;;;11.60;82.50;;;;;;5060936;28;19993;-68
2023/10/15 07:56:58;;;;;;;;;;;11.60;82.50;;;;;;5066060;28;20433;-68
2023/10/15 07:59:25;;;;;;;;;;;11.60;82.60;;;;;;5070606;28;20016;-68
2023/10/15 08:01:51;;;;;;;;;;;11.60;82.50;;;;;;5065638;28;20013;-68
2023/10/15 08:04:20;;;;;;;;;;;11.60;82.60;;;;;;5065309;28;19975;-69
2023/10/15 08:06:47;;;;;;;;;;;11.60;82.50;;;;;;5065512;28;20466;-69
2023/10/15 08:09:14;;;;;;;;;;;11.60;82.50;;;;;;5065397;28;20010;-68
2023/10/15 08:11:41;;;;;;;;;;;11.60;82.60;;;;;;5067833;28;20072;-68
2023/10/15 08:14:08;;;;;;;;;;;11.60;83.30;;;;;;5065557;28;19985;-68
2023/10/15 08:16:34;;;;;;;;;;;11.50;82.50;;;;;;5065754;28;19983;-68
2023/10/15 08:19:01;;;;;;;;;;;11.60;83.30;;;;;;5068849;28;19961;-69
2023/10/15 08:21:29;;;;;;;;;;;11.60;82.60;;;;;;5068262;28;19964;-68
2023/10/15 08:23:55;;;;;;;;;;;11.60;82.60;;;;;;5070802;28;19981;-70
2023/10/15 08:26:22;;;;;;;;;;;11.60;82.60;;;;;;5064836;28;20406;-69
2023/10/15 08:28:48;;;;;;;;;;;11.60;82.60;;;;;;5070995;28;19956;-68
2023/10/15 08:31:15;;;;;;;;;;;11.50;82.60;;;;;;5064846;28;20052;-68
2023/10/15 08:33:41;;;;;;;;;;;11.60;82.70;;;;;;5065512;28;20003;-69
2023/10/15 08:36:08;;;;;;;;;;;11.60;82.70;;;;;;5067994;28;19961;-68
2023/10/15 08:38:36;;;;;;;;;;;11.50;82.60;;;;;;5069128;28;19957;-70
2023/10/15 08:41:04;;;;;;;;;;;11.50;83.10;;;;;;5063025;28;20315;-68
2023/10/15 08:43:32;;;;;;;;;;;11.50;82.60;;;;;;5063612;28;20480;-68
2023/10/15 08:45:59;;;;;;;;;;;11.50;82.50;;;;;;5068149;28;20068;-69
2023/10/15 08:48:27;;;;;;;;;;;11.60;82.60;;;;;;5068992;28;20501;-68
2023/10/15 08:50:53;;;;;;;;;;;11.60;82.60;;;;;;5067504;28;19963;-69
2023/10/15 08:53:22;;;;;;;;;;;11.60;82.50;;;;;;5065857;28;19975;-68
2023/10/15 08:55:50;;;;;;;;;;;11.60;82.40;;;;;;5063373;28;20470;-67
2023/10/15 08:58:18;;;;;;;;;;;11.50;82.20;;;;;;5066505;28;19965;-68
2023/10/15 09:00:47;;;;;;;;;;;11.60;82.30;;;;;;5064692;28;20012;-69
2023/10/15 09:03:14;;;;;;;;;;;11.60;81.90;;;;;;5064923;28;20425;-68
2023/10/15 09:05:42;;;;;;;;;;;11.60;81.80;;;;;;5062959;28;20020;-68
2023/10/15 09:08:10;;;;;;;;;;;11.60;81.40;;;;;;5066383;28;19961;-68
2023/10/15 09:10:37;;;;;;;;;;;11.50;81.20;;;;;;5067066;28;20073;-68
2023/10/15 09:13:14;;;;;;;;;;;11.50;81.20;;;;;;5066272;28;20658;-70
2023/10/15 09:15:43;;;;;;;;;;;11.60;81.20;;;;;;5063637;28;21376;-69
2023/10/15 09:18:11;;;;;;;;;;;11.60;81.10;;;;;;5065183;28;19963;-68
2023/10/15 09:20:42;;;;;;;;;;;11.60;80.90;;;;;;5066090;28;19966;-69
2023/10/15 09:23:09;;;;;;;;;;;11.70;80.90;;;;;;5065384;28;19959;-68
2023/10/15 09:25:36;;;;;;;;;;;11.70;80.80;;;;;;5065083;28;20070;-69
2023/10/15 09:28:02;;;;;;;;;;;11.80;80.30;;;;;;5070212;28;19954;-69
2023/10/15 09:30:31;;;;;;;;;;;11.80;79.80;;;;;;5066199;28;19979;-68
2023/10/15 09:32:57;;;;;;;;;;;11.80;79.60;;;;;;5067208;28;20060;-68
2023/10/15 09:35:24;;;;;;;;;;;11.90;79.50;;;;;;5069222;28;20453;-70
2023/10/15 09:37:53;;;;;;;;;;;12.00;78.80;;;;;;5068735;28;19956;-69
2023/10/15 09:40:20;;;;;;;;;;;12.00;78.40;;;;;;5065339;28;20007;-68
2023/10/15 09:42:49;;;;;;;;;;;12.10;78.00;;;;;;5065396;28;19961;-68
2023/10/15 09:45:18;;;;;;;;;;;12.20;77.70;;;;;;5066393;28;19978;-69
2023/10/15 09:47:49;;;;;;;;;;;12.20;77.40;;;;;;5065868;28;19965;-68
2023/10/15 09:50:19;;;;;;;;;;;12.30;76.80;;;;;;5064384;28;19970;-68
2023/10/15 09:52:54;;;;;;;;;;;12.40;76.30;;;;;;5063839;28;20523;-69
2023/10/15 09:55:23;;;;;;;;;;;12.40;76.10;;;;;;5064443;28;19978;-68
2023/10/15 09:57:52;;;;;;;;;;;12.50;75.70;;;;;;5067674;28;19966;-68
2023/10/15 10:00:32;;;;;;;;;;;12.50;75.20;;;;;;5071312;28;19962;-69
2023/10/15 10:03:09;;;;;;;;;;;12.60;74.80;;;;;;5068442;28;19962;-69
2023/10/15 10:05:44;;;;;;;;;;;12.70;74.30;;;;;;5067378;28;19973;-68
2023/10/15 10:08:16;;;;;;;;;;;12.70;74.00;;;;;;5068324;28;19965;-68
2023/10/15 10:10:54;;;;;;;;;;;12.80;73.80;;;;;;5072002;28;19962;-68
2023/10/15 10:13:30;;;;;;;;;;;12.80;73.10;;;;;;5068111;28;19985;-69
2023/10/15 10:15:58;;;;;;;;;;;12.80;73.20;;;;;;5064889;28;20005;-68
2023/10/15 10:18:28;;;;;;;;;;;12.80;73.00;;;;;;5072186;28;19966;-69
2023/10/15 10:20:56;;;;;;;;;;;12.80;72.80;;;;;;5069912;28;19962;-67
2023/10/15 10:23:23;;;;;;;;;;;12.90;73.40;;;;;;5071362;28;20471;-69
2023/10/15 10:25:50;;;;;;;;;;;12.80;73.30;;;;;;5071036;28;19982;-68
2023/10/15 10:28:18;;;;;;;;;;;12.90;73.20;;;;;;5068937;28;19969;-68
2023/10/15 10:30:51;;;;;;;;;;;12.80;73.00;;;;;;5067407;28;19973;-68
2023/10/15 10:33:33;;;;;;;;;;;12.80;72.40;;;;;;5067790;28;19984;-69
2023/10/15 10:36:10;;;;;;;;;;;12.80;73.20;;;;;;5070555;28;19958;-68
2023/10/15 10:38:39;;;;;;;;;;;12.80;72.70;;;;;;5064904;28;20051;-68
2023/10/15 10:41:07;;;;;;;;;;;12.90;72.60;;;;;;5071284;28;19999;-68
2023/10/15 10:43:34;;;;;;;;;;;12.90;72.20;;;;;;5065720;28;19958;-69
2023/10/15 10:46:01;;;;;;;;;;;12.90;72.00;;;;;;5066452;28;20058;-69
2023/10/15 10:48:28;;;;;;;;;;;12.90;72.50;;;;;;5072793;28;19969;-69
2023/10/15 10:51:15;;;;;;;;;;;12.90;72.80;;;;;;5071257;28;19969;-69
2023/10/15 10:53:57;;;;;;;;;;;12.80;72.20;;;;;;5060405;28;19974;-68
2023/10/15 10:56:25;;;;;;;;;;;12.90;71.60;;;;;;5066113;28;20054;-69
2023/10/15 10:58:52;;;;;;;;;;;12.90;71.20;;;;;;5067026;28;20056;-68
2023/10/15 11:01:19;;;;;;;;;;;12.90;70.80;;;;;;5064600;28;19979;-67
2023/10/15 11:03:46;;;;;;;;;;;12.90;71.00;;;;;;5068706;28;20443;-68
2023/10/15 11:06:15;;;;;;;;;;;12.90;70.90;;;;;;5067675;28;19967;-68
2023/10/15 11:08:42;;;;;;;;;;;12.90;70.50;;;;;;5065495;28;19955;-67
2023/10/15 11:11:09;;;;;;;;;;;12.90;69.80;;;;;;5065880;28;19967;-68
2023/10/15 11:13:36;;;;;;;;;;;13.00;70.20;;;;;;5065732;28;20015;-68
2023/10/15 11:16:03;;;;;;;;;;;13.00;69.50;;;;;;5068992;28;19978;-68
2023/10/15 11:18:30;;;;;;;;;;;13.00;69.50;;;;;;5069834;28;20438;-69
2023/10/15 11:20:57;;;;;;;;;;;13.10;68.90;;;;;;5069781;28;19964;-68
2023/10/15 11:23:26;;;;;;;;;;;13.20;68.20;;;;;;5067055;28;19968;-68
2023/10/15 11:25:54;;;;;;;;;;;13.30;68.50;;;;;;5067507;28;19979;-68
2023/10/15 11:28:21;;;;;;;;;;;13.30;68.10;;;;;;5070561;28;20010;-69
2023/10/15 11:30:47;;;;;;;;;;;13.30;67.40;;;;;;5066760;28;20456;-68
2023/10/15 11:33:17;;;;;;;;;;;13.40;67.80;;;;;;5071907;28;20003;-68
2023/10/15 11:35:44;;;;;;;;;;;13.40;67.70;;;;;;5070271;28;20693;-68
2023/10/15 11:38:11;;;;;;;;;;;13.40;67.50;;;;;;5068364;28;20010;-68
2023/10/15 11:40:39;;;;;;;;;;;13.40;67.10;;;;;;5072259;28;19958;-69
2023/10/15 11:43:09;;;;;;;;;;;13.50;66.80;;;;;;5066081;28;19956;-68
2023/10/15 11:45:37;;;;;;;;;;;13.50;66.10;;;;;;5064097;28;20430;-68
2023/10/15 11:48:04;;;;;;;;;;;13.50;65.60;;;;;;5069145;28;19960;-69
2023/10/15 11:50:31;;;;;;;;;;;13.50;65.90;;;;;;5067755;28;19956;-68
2023/10/15 11:52:58;;;;;;;;;;;13.50;65.50;;;;;;5068604;28;20006;-69
2023/10/15 11:55:26;;;;;;;;;;;13.50;65.80;;;;;;5066083;28;20091;-68
2023/10/15 11:57:54;;;;;;;;;;;13.50;65.40;;;;;;5069214;28;20054;-69
2023/10/15 12:00:31;;;;;;;;;;;13.50;65.50;;;;;;5069078;28;19957;-69
2023/10/15 12:02:59;;;;;;;;;;;13.50;65.50;;;;;;5069565;28;20014;-68
2023/10/15 12:05:26;;;;;;;;;;;13.50;65.50;;;;;;5071573;28;20404;-68
2023/10/15 12:07:53;;;;;;;;;;;13.50;65.90;;;;;;5066718;28;19993;-70
2023/10/15 12:10:21;;;;;;;;;;;13.50;65.20;;;;;;5067632;28;19971;-68
2023/10/15 12:12:49;;;;;;;;;;;13.50;65.50;;;;;;5066475;28;20473;-68
2023/10/15 12:15:17;;;;;;;;;;;13.60;65.10;;;;;;5067238;28;19988;-68
2023/10/15 12:17:44;;;;;;;;;;;13.60;64.70;;;;;;5070432;28;20054;-69
2023/10/15 12:20:12;;;;;;;;;;;13.70;65.80;;;;;;5067097;28;19968;-68
2023/10/15 12:22:39;;;;;;;;;;;13.80;65.20;;;;;;5068122;28;19961;-69
2023/10/15 12:25:06;;;;;;;;;;;13.90;63.60;;;;;;5064710;28;19981;-69
2023/10/15 12:27:32;;;;;;;;;;;13.90;63.40;;;;;;5067371;28;19969;-68
2023/10/15 12:30:03;;;;;;;;;;;14.00;64.50;;;;;;5066291;28;19981;-68
2023/10/15 12:32:31;;;;;;;;;;;14.10;63.60;;;;;;5067710;28;19978;-69
2023/10/15 12:34:58;;;;;;;;;;;14.10;63.50;;;;;;5067933;28;19973;-68
2023/10/15 12:37:29;;;;;;;;;;;14.10;62.90;;;;;;5065845;28;20507;-68
2023/10/15 12:39:57;;;;;;;;;;;14.10;63.70;;;;;;5068262;28;20325;-68
2023/10/15 12:42:23;;;;;;;;;;;14.10;62.90;;;;;;5062211;28;20428;-68
2023/10/15 12:44:50;;;;;;;;;;;14.10;63.70;;;;;;5064721;28;19980;-68
2023/10/15 12:47:17;;;;;;;;;;;14.10;64.90;;;;;;5061593;28;19981;-68
2023/10/15 12:49:44;;;;;;;;;;;14.10;64.40;;;;;;5066609;28;19994;-68
2023/10/15 12:52:11;;;;;;;;;;;14.00;64.50;;;;;;5066788;28;19977;-68
2023/10/15 12:54:37;;;;;;;;;;;14.00;64.00;;;;;;5065849;28;19973;-68
2023/10/15 12:57:05;;;;;;;;;;;14.00;64.40;;;;;;5067827;28;19957;-68
2023/10/15 12:59:31;;;;;;;;;;;13.90;65.10;;;;;;5064194;28;20668;-68
2023/10/15 13:01:58;;;;;;;;;;;13.90;64.00;;;;;;5063200;28;19973;-68
2023/10/15 13:04:24;;;;;;;;;;;13.90;64.60;;;;;;5064478;28;19974;-68
2023/10/15 13:06:52;;;;;;;;;;;13.90;64.90;;;;;;5064946;28;19964;-68
2023/10/15 13:09:21;;;;;;;;;;;13.90;66.20;;;;;;5065074;28;19965;-69
2023/10/15 13:11:48;;;;;;;;;;;13.90;66.10;;;;;;5065287;28;19956;-69
2023/10/15 13:14:14;;;;;;;;;;;13.80;64.60;;;;;;5062135;28;19993;-69
2023/10/15 13:16:41;;;;;;;;;;;13.80;64.70;;;;;;5063078;28;19973;-69
2023/10/15 13:19:08;;;;;;;;;;;13.90;64.90;;;;;;5065015;28;19965;-68
2023/10/15 13:21:35;;;;;;;;;;;13.80;64.20;;;;;;5065260;28;19961;-69
2023/10/15 13:24:03;;;;;;;;;;;13.80;65.20;;;;;;5063274;28;20055;-68
2023/10/15 13:26:30;;;;;;;;;;;13.80;64.60;;;;;;5065452;28;19965;-67
2023/10/15 13:28:56;;;;;;;;;;;13.80;65.70;;;;;;5064810;28;19965;-69
2023/10/15 13:31:23;;;;;;;;;;;13.80;64.90;;;;;;5066929;28;19976;-68
2023/10/15 13:33:50;;;;;;;;;;;13.80;64.50;;;;;;5065208;28;20021;-69
2023/10/15 13:36:16;;;;;;;;;;;13.80;64.30;;;;;;5068767;28;19968;-70
2023/10/15 13:38:43;;;;;;;;;;;13.80;64.20;;;;;;5065583;28;20720;-68
2023/10/15 13:41:11;;;;;;;;;;;13.90;62.90;;;;;;5065192;28;20445;-69
2023/10/15 13:43:38;;;;;;;;;;;13.90;64.00;;;;;;5062196;28;19984;-68
2023/10/15 13:46:04;;;;;;;;;;;13.90;62.90;;;;;;5062456;28;19980;-68
2023/10/15 13:48:31;;;;;;;;;;;14.10;61.30;;;;;;5062931;28;20001;-69
2023/10/15 13:50:58;;;;;;;;;;;14.10;60.60;;;;;;5067364;28;19963;-68
2023/10/15 13:53:24;;;;;;;;;;;14.20;60.80;;;;;;5064132;28;19988;-68
2023/10/15 13:55:52;;;;;;;;;;;14.20;62.20;;;;;;5063976;28;20257;-68
2023/10/15 13:58:21;;;;;;;;;;;14.30;61.60;;;;;;5064229;28;19965;-68
2023/10/15 14:00:47;;;;;;;;;;;14.40;62.00;;;;;;5066525;28;19973;-68
2023/10/15 14:03:15;;;;;;;;;;;14.40;60.00;;;;;;5065213;28;19961;-69
2023/10/15 14:05:43;;;;;;;;;;;14.50;60.00;;;;;;5064354;28;19980;-68
2023/10/15 14:08:09;;;;;;;;;;;14.50;60.00;;;;;;5068429;28;19968;-69
2023/10/15 14:10:37;;;;;;;;;;;14.60;60.20;;;;;;5066649;28;20028;-68
2023/10/15 14:13:05;;;;;;;;;;;14.60;59.30;;;;;;5065281;28;19977;-68
2023/10/15 14:15:33;;;;;;;;;;;14.60;59.90;;;;;;5062316;28;19977;-68
2023/10/15 14:18:00;;;;;;;;;;;14.70;59.70;;;;;;5065481;28;19958;-68
2023/10/15 14:20:26;;;;;;;;;;;14.70;61.10;;;;;;5065798;28;20005;-68
2023/10/15 14:22:54;;;;;;;;;;;14.80;59.70;;;;;;5065162;28;20065;-69